createdAt,value
2022-11-25T00:00:56.575Z,3.18
2022-11-25T00:01:56.591Z,3.18
2022-11-25T00:02:56.644Z,3.18
2022-11-25T00:04:03.837Z,3.13
2022-11-25T00:04:56.526Z,3.16
2022-11-25T00:05:56.576Z,3.19
2022-11-25T00:06:56.571Z,3.21
2022-11-25T00:07:56.639Z,3.22
2022-11-25T00:08:56.617Z,3.24
2022-11-25T00:09:56.475Z,3.21
2022-11-25T00:10:56.504Z,3.19
2022-11-25T00:11:56.570Z,3.19
2022-11-25T00:12:56.429Z,3.16
2022-11-25T00:13:56.496Z,3.19
2022-11-25T00:14:57.416Z,3.18
2022-11-25T00:15:56.392Z,3.19
2022-11-25T00:16:56.450Z,3.18
2022-11-25T00:17:56.425Z,3.18
2022-11-25T00:18:56.397Z,3.15
2022-11-25T00:19:56.489Z,3.12
2022-11-25T00:20:56.336Z,3.11
2022-11-25T00:21:56.356Z,3.09
2022-11-25T00:22:56.306Z,3.09
2022-11-25T00:23:56.332Z,3.11
2022-11-25T00:24:56.298Z,3.12
2022-11-25T00:25:56.283Z,3.15
2022-11-25T00:26:56.284Z,3.15
2022-11-25T00:27:56.296Z,3.16
2022-11-25T00:28:56.215Z,3.16
2022-11-25T00:29:56.217Z,3.13
2022-11-25T00:30:56.224Z,3.09
2022-11-25T00:31:56.215Z,3.05
2022-11-25T00:32:56.164Z,3.00
2022-11-25T00:33:56.143Z,3.00
2022-11-25T00:34:56.156Z,3.01
2022-11-25T00:35:56.112Z,3.01
2022-11-25T00:36:56.134Z,3.05
2022-11-25T00:37:56.084Z,3.05
2022-11-25T00:38:56.083Z,3.05
2022-11-25T00:39:56.088Z,3.01
2022-11-25T00:40:56.053Z,2.98
2022-11-25T00:41:56.053Z,2.94
2022-11-25T00:42:56.025Z,2.93
2022-11-25T00:43:56.015Z,2.93
2022-11-25T00:44:56.013Z,2.91
2022-11-25T00:45:56.047Z,2.93
2022-11-25T00:46:55.977Z,2.95
2022-11-25T00:47:55.953Z,2.94
2022-11-25T00:48:55.953Z,2.97
2022-11-25T00:49:55.954Z,2.95
2022-11-25T00:50:55.926Z,2.93
2022-11-25T00:51:55.912Z,2.95
2022-11-25T00:52:55.903Z,2.93
2022-11-25T00:53:58.979Z,2.91
2022-11-25T00:54:55.890Z,2.91
2022-11-25T00:55:55.854Z,2.93
2022-11-25T00:56:55.843Z,2.91
2022-11-25T00:57:55.829Z,2.88
2022-11-25T00:58:55.813Z,2.85
2022-11-25T00:59:55.822Z,2.85
2022-11-25T01:00:55.804Z,2.83
2022-11-25T01:01:55.824Z,2.83
2022-11-25T01:02:55.763Z,2.85
2022-11-25T01:03:55.751Z,2.82
2022-11-25T01:04:55.752Z,2.85
2022-11-25T01:05:55.722Z,2.80
2022-11-25T01:06:55.711Z,2.80
2022-11-25T01:07:55.701Z,2.83
2022-11-25T01:08:55.682Z,2.85
2022-11-25T01:09:55.682Z,2.83
2022-11-25T01:10:55.652Z,2.88
2022-11-25T01:11:55.642Z,2.88
2022-11-25T01:12:55.646Z,2.87
2022-11-25T01:14:00.788Z,2.85
2022-11-25T01:14:56.658Z,2.82
2022-11-25T01:15:55.592Z,2.80
2022-11-25T01:16:55.613Z,2.80
2022-11-25T01:17:55.561Z,2.80
2022-11-25T01:18:55.550Z,2.77
2022-11-25T01:19:55.551Z,2.73
2022-11-25T01:20:55.511Z,2.72
2022-11-25T01:21:55.511Z,2.73
2022-11-25T01:22:55.491Z,2.72
2022-11-25T01:23:55.495Z,2.70
2022-11-25T01:24:55.490Z,2.73
2022-11-25T01:25:55.455Z,2.72
2022-11-25T01:26:55.450Z,2.72
2022-11-25T01:27:55.430Z,2.72
2022-11-25T01:28:55.421Z,2.70
2022-11-25T01:29:55.444Z,2.65
2022-11-25T01:30:55.392Z,2.62
2022-11-25T01:31:55.406Z,2.61
2022-11-25T01:32:55.373Z,2.65
2022-11-25T01:33:55.361Z,2.68
2022-11-25T01:34:55.360Z,2.64
2022-11-25T01:35:55.329Z,2.62
2022-11-25T01:36:55.321Z,2.61
2022-11-25T01:37:55.417Z,2.59
2022-11-25T01:38:55.290Z,2.65
2022-11-25T01:39:55.300Z,2.70
2022-11-25T01:40:55.261Z,2.70
2022-11-25T01:41:55.256Z,2.70
2022-11-25T01:42:55.242Z,2.72
2022-11-25T01:43:55.237Z,2.73
2022-11-25T01:44:55.218Z,2.72
2022-11-25T01:45:55.260Z,2.68
2022-11-25T01:46:55.188Z,2.64
2022-11-25T01:47:55.170Z,2.64
2022-11-25T01:48:55.159Z,2.62
2022-11-25T01:49:55.140Z,2.59
2022-11-25T01:50:55.159Z,2.58
2022-11-25T01:51:55.119Z,2.57
2022-11-25T01:52:55.108Z,2.58
2022-11-25T01:53:55.129Z,2.59
2022-11-25T01:54:55.078Z,2.58
2022-11-25T01:55:55.103Z,2.55
2022-11-25T01:56:55.059Z,2.50
2022-11-25T01:57:55.050Z,2.50
2022-11-25T01:58:55.030Z,2.51
2022-11-25T01:59:55.010Z,2.50
2022-11-25T02:00:55.040Z,2.46
2022-11-25T02:01:55.036Z,2.43
2022-11-25T02:02:54.984Z,2.37
2022-11-25T02:03:54.966Z,2.36
2022-11-25T02:04:54.951Z,2.34
2022-11-25T02:05:54.949Z,2.34
2022-11-25T02:06:54.928Z,2.32
2022-11-25T02:07:54.988Z,2.32
2022-11-25T02:08:54.897Z,2.33
2022-11-25T02:09:54.889Z,2.36
2022-11-25T02:10:54.888Z,2.34
2022-11-25T02:11:54.859Z,2.36
2022-11-25T02:12:54.869Z,2.36
2022-11-25T02:13:54.846Z,2.37
2022-11-25T02:14:54.819Z,2.34
2022-11-25T02:15:54.830Z,2.36
2022-11-25T02:16:54.857Z,2.34
2022-11-25T02:17:54.790Z,2.34
2022-11-25T02:18:54.780Z,2.33
2022-11-25T02:19:54.758Z,2.33
2022-11-25T02:20:54.757Z,2.37
2022-11-25T02:21:54.741Z,2.39
2022-11-25T02:22:54.781Z,2.37
2022-11-25T02:23:54.708Z,2.37
2022-11-25T02:24:54.678Z,2.37
2022-11-25T02:25:54.698Z,2.39
2022-11-25T02:26:54.667Z,2.39
2022-11-25T02:27:54.658Z,2.39
2022-11-25T02:28:54.647Z,2.40
2022-11-25T02:29:54.635Z,2.39
2022-11-25T02:30:54.649Z,2.37
2022-11-25T02:33:28.764Z,2.43
2022-11-25T02:34:05.216Z,2.46
2022-11-25T02:35:05.202Z,2.50
2022-11-25T02:36:05.211Z,2.54
2022-11-25T02:37:05.179Z,2.58
2022-11-25T02:38:05.167Z,2.55
2022-11-25T02:39:05.168Z,2.57
2022-11-25T02:40:05.149Z,2.57
2022-11-25T02:41:05.141Z,2.57
2022-11-25T02:42:05.113Z,2.55
2022-11-25T02:43:05.121Z,2.62
2022-11-25T02:44:05.080Z,2.62
2022-11-25T02:45:05.099Z,2.64
2022-11-25T02:46:05.081Z,2.69
2022-11-25T02:47:05.052Z,2.70
2022-11-25T02:48:05.043Z,2.75
2022-11-25T02:49:09.660Z,2.75
2022-11-25T02:50:06.000Z,2.77
2022-11-25T02:51:04.991Z,2.76
2022-11-25T02:52:04.997Z,2.82
2022-11-25T02:53:04.952Z,2.83
2022-11-25T02:54:04.961Z,2.85
2022-11-25T02:55:04.950Z,2.87
2022-11-25T02:56:04.921Z,2.90
2022-11-25T02:57:04.950Z,2.88
2022-11-25T02:58:04.912Z,2.91
2022-11-25T02:59:04.893Z,2.90
2022-11-25T03:00:04.870Z,2.88
2022-11-25T03:01:04.940Z,2.83
2022-11-25T03:02:04.899Z,2.77
2022-11-25T03:03:04.850Z,2.77
2022-11-25T03:04:04.835Z,2.79
2022-11-25T03:05:04.819Z,2.77
2022-11-25T03:06:04.822Z,2.79
2022-11-25T03:07:04.810Z,2.80
2022-11-25T03:08:04.773Z,2.83
2022-11-25T03:09:04.769Z,2.87
2022-11-25T03:10:04.742Z,2.85
2022-11-25T03:11:04.751Z,2.85
2022-11-25T03:12:04.731Z,2.87
2022-11-25T03:13:04.721Z,2.87
2022-11-25T03:14:04.691Z,2.87
2022-11-25T03:15:04.689Z,2.85
2022-11-25T03:16:04.723Z,2.85
2022-11-25T03:17:04.685Z,2.87
2022-11-25T03:18:04.656Z,2.87
2022-11-25T03:19:04.642Z,2.88
2022-11-25T03:20:04.622Z,2.88
2022-11-25T03:21:04.626Z,2.90
2022-11-25T03:22:04.628Z,2.90
2022-11-25T03:23:04.596Z,2.91
2022-11-25T03:24:04.571Z,2.91
2022-11-25T03:25:04.571Z,2.90
2022-11-25T03:26:04.552Z,2.90
2022-11-25T03:27:04.570Z,2.88
2022-11-25T03:28:04.521Z,2.90
2022-11-25T03:29:04.513Z,2.93
2022-11-25T03:30:04.514Z,2.95
2022-11-25T03:31:04.483Z,2.98
2022-11-25T03:32:09.312Z,3.00
2022-11-25T03:33:05.491Z,3.01
2022-11-25T03:34:04.453Z,3.06
2022-11-25T03:35:04.445Z,3.08
2022-11-25T03:36:04.423Z,3.08
2022-11-25T03:37:04.619Z,3.08
2022-11-25T03:38:04.391Z,3.06
2022-11-25T03:39:04.390Z,3.09
2022-11-25T03:40:04.361Z,3.09
2022-11-25T03:41:04.361Z,3.08
2022-11-25T03:42:04.362Z,3.08
2022-11-25T03:43:04.341Z,3.08
2022-11-25T03:44:04.317Z,3.11
2022-11-25T03:45:04.301Z,3.12
2022-11-25T03:46:04.341Z,3.08
2022-11-25T03:47:04.298Z,3.09
2022-11-25T03:48:04.261Z,3.12
2022-11-25T03:49:04.261Z,3.13
2022-11-25T03:50:04.234Z,3.15
2022-11-25T03:51:04.231Z,3.21
2022-11-25T03:52:04.212Z,3.21
2022-11-25T03:53:04.220Z,3.19
2022-11-25T03:54:04.181Z,3.21
2022-11-25T03:55:04.200Z,3.19
2022-11-25T03:56:04.202Z,3.21
2022-11-25T03:57:04.155Z,3.21
2022-11-25T03:58:04.150Z,3.26
2022-11-25T03:59:04.132Z,3.30
2022-11-25T04:00:04.112Z,3.30
2022-11-25T04:01:04.119Z,3.37
2022-11-25T04:02:04.125Z,3.40
2022-11-25T04:03:04.080Z,3.40
2022-11-25T04:04:04.061Z,3.41
2022-11-25T04:05:04.049Z,3.41
2022-11-25T04:06:04.032Z,3.41
2022-11-25T04:07:04.017Z,3.40
2022-11-25T04:08:04.079Z,3.37
2022-11-25T04:09:04.000Z,3.41
2022-11-25T04:10:03.970Z,3.41
2022-11-25T04:11:03.971Z,3.43
2022-11-25T04:12:03.949Z,3.41
2022-11-25T04:13:03.980Z,3.46
2022-11-25T04:14:03.929Z,3.48
2022-11-25T04:15:03.939Z,3.49
2022-11-25T04:16:03.900Z,3.52
2022-11-25T04:17:03.977Z,3.53
2022-11-25T04:18:03.898Z,3.53
2022-11-25T04:19:03.859Z,3.58
2022-11-25T04:20:03.848Z,3.55
2022-11-25T04:21:03.839Z,3.58
2022-11-25T04:22:03.828Z,3.59
2022-11-25T04:23:03.845Z,3.56
2022-11-25T04:24:03.791Z,3.58
2022-11-25T04:25:03.790Z,3.59
2022-11-25T04:26:03.767Z,3.61
2022-11-25T04:27:03.759Z,3.61
2022-11-25T04:28:03.760Z,3.59
2022-11-25T04:29:03.730Z,3.59
2022-11-25T04:30:03.723Z,3.59
2022-11-25T04:31:03.730Z,3.61
2022-11-25T04:32:03.690Z,3.64
2022-11-25T04:33:03.713Z,3.67
2022-11-25T04:34:03.668Z,3.67
2022-11-25T04:35:03.668Z,3.68
2022-11-25T04:36:03.642Z,3.70
2022-11-25T04:37:03.632Z,3.71
2022-11-25T04:38:03.633Z,3.70
2022-11-25T04:39:03.599Z,3.70
2022-11-25T04:40:03.586Z,3.70
2022-11-25T04:41:03.577Z,3.73
2022-11-25T04:42:03.548Z,3.73
2022-11-25T04:43:09.032Z,3.73
2022-11-25T04:44:04.530Z,3.74
2022-11-25T04:46:19.945Z,3.73
2022-11-25T04:47:04.541Z,3.74
2022-11-25T04:48:03.497Z,3.76
2022-11-25T04:49:03.459Z,3.84
2022-11-25T04:50:03.467Z,3.88
2022-11-25T04:51:03.449Z,3.89
2022-11-25T04:52:03.427Z,3.94
2022-11-25T04:53:03.440Z,3.92
2022-11-25T04:54:03.400Z,3.92
2022-11-25T04:55:03.391Z,3.91
2022-11-25T04:56:03.389Z,3.89
2022-11-25T04:57:03.370Z,3.88
2022-11-25T04:58:03.337Z,3.91
2022-11-25T04:59:03.357Z,3.89
2022-11-25T05:00:03.330Z,3.89
2022-11-25T05:01:03.359Z,3.91
2022-11-25T05:02:03.343Z,3.92
2022-11-25T05:03:03.293Z,3.91
2022-11-25T05:04:03.290Z,3.89
2022-11-25T05:05:03.263Z,3.89
2022-11-25T05:06:03.248Z,3.86
2022-11-25T05:07:03.238Z,3.88
2022-11-25T05:08:03.223Z,3.86
2022-11-25T05:09:03.228Z,3.86
2022-11-25T05:10:03.196Z,3.86
2022-11-25T05:11:03.193Z,3.89
2022-11-25T05:12:03.167Z,3.88
2022-11-25T05:13:03.147Z,3.89
2022-11-25T05:14:03.158Z,3.91
2022-11-25T05:15:03.127Z,3.91
2022-11-25T05:16:03.112Z,3.89
2022-11-25T05:17:03.152Z,3.88
2022-11-25T05:18:03.087Z,3.85
2022-11-25T05:19:03.087Z,3.86
2022-11-25T05:20:03.057Z,3.88
2022-11-25T05:21:03.052Z,3.88
2022-11-25T05:22:03.039Z,3.86
2022-11-25T05:23:03.028Z,3.84
2022-11-25T05:24:03.027Z,3.81
2022-11-25T05:25:02.997Z,3.76
2022-11-25T05:26:02.988Z,3.77
2022-11-25T05:27:02.967Z,3.77
2022-11-25T05:28:02.964Z,3.82
2022-11-25T05:29:02.958Z,3.86
2022-11-25T05:30:02.928Z,3.92
2022-11-25T05:31:03.001Z,3.95
2022-11-25T05:32:02.903Z,4.00
2022-11-25T05:33:02.897Z,4.02
2022-11-25T05:34:02.896Z,4.04
2022-11-25T05:35:02.871Z,4.04
2022-11-25T05:36:02.846Z,4.04
2022-11-25T05:37:02.866Z,4.03
2022-11-25T05:38:02.827Z,4.04
2022-11-25T05:39:02.837Z,4.06
2022-11-25T05:40:02.826Z,4.06
2022-11-25T05:41:02.807Z,4.09
2022-11-25T05:42:02.785Z,4.10
2022-11-25T05:43:02.806Z,4.07
2022-11-25T05:44:02.786Z,4.09
2022-11-25T05:45:02.799Z,4.07
2022-11-25T05:46:02.773Z,4.09
2022-11-25T05:47:02.785Z,4.07
2022-11-25T05:48:02.826Z,4.04
2022-11-25T05:49:02.727Z,4.00
2022-11-25T05:50:02.799Z,3.99
2022-11-25T05:51:02.798Z,3.95
2022-11-25T05:52:02.716Z,3.95
2022-11-25T05:53:02.778Z,3.92
2022-11-25T05:54:02.683Z,3.92
2022-11-25T05:55:02.637Z,3.95
2022-11-25T05:56:02.645Z,3.99
2022-11-25T05:57:02.626Z,4.03
2022-11-25T05:58:02.556Z,4.21
2022-11-25T05:59:02.596Z,5.08
2022-11-25T06:00:02.537Z,6.06
2022-11-25T06:01:02.536Z,6.75
2022-11-25T06:02:02.569Z,6.75
2022-11-25T06:03:02.761Z,6.87
2022-11-25T06:04:02.547Z,7.08
2022-11-25T06:05:02.507Z,7.23
2022-11-25T06:06:02.504Z,6.97
2022-11-25T06:07:02.486Z,7.03
2022-11-25T06:08:02.484Z,6.71
2022-11-25T06:09:02.466Z,6.44
2022-11-25T06:10:03.465Z,6.19
2022-11-25T06:11:02.486Z,6.01
2022-11-25T06:12:02.426Z,5.80
2022-11-25T06:13:02.407Z,5.61
2022-11-25T06:14:02.377Z,5.46
2022-11-25T06:15:02.325Z,5.31
2022-11-25T06:16:07.569Z,5.20
2022-11-25T06:17:03.294Z,5.08
2022-11-25T06:18:02.310Z,5.02
2022-11-25T06:19:02.316Z,4.97
2022-11-25T06:20:02.285Z,4.90
2022-11-25T06:21:02.275Z,4.86
2022-11-25T06:22:02.245Z,4.82
2022-11-25T06:23:02.238Z,4.78
2022-11-25T06:24:02.243Z,4.76
2022-11-25T06:25:04.118Z,4.71
2022-11-25T06:26:02.195Z,4.70
2022-11-25T06:27:02.200Z,4.68
2022-11-25T06:28:12.734Z,4.70
2022-11-25T06:29:03.174Z,4.68
2022-11-25T06:30:02.170Z,4.68
2022-11-25T06:31:02.152Z,4.67
2022-11-25T06:32:02.117Z,4.68
2022-11-25T06:33:02.116Z,4.67
2022-11-25T06:34:02.104Z,4.68
2022-11-25T06:35:02.096Z,4.67
2022-11-25T06:36:02.075Z,4.66
2022-11-25T06:37:02.056Z,4.64
2022-11-25T06:38:02.035Z,4.64
2022-11-25T06:39:02.070Z,4.61
2022-11-25T06:40:02.016Z,4.63
2022-11-25T06:41:02.003Z,4.63
2022-11-25T06:42:01.986Z,4.61
2022-11-25T06:43:01.994Z,4.63
2022-11-25T06:44:01.974Z,4.64
2022-11-25T06:45:01.956Z,4.64
2022-11-25T06:46:01.972Z,4.66
2022-11-25T06:47:01.935Z,4.67
2022-11-25T06:48:01.910Z,4.68
2022-11-25T06:49:01.907Z,4.68
2022-11-25T06:50:01.887Z,4.68
2022-11-25T06:51:01.878Z,4.68
2022-11-25T06:52:01.868Z,4.70
2022-11-25T06:53:01.834Z,4.74
2022-11-25T06:54:01.868Z,4.75
2022-11-25T06:55:01.822Z,4.75
2022-11-25T06:56:01.814Z,4.76
2022-11-25T06:57:01.784Z,4.78
2022-11-25T06:58:20.679Z,4.79
2022-11-25T06:59:02.796Z,4.82
2022-11-25T07:00:01.752Z,4.82
2022-11-25T07:01:01.744Z,4.83
2022-11-25T07:02:01.859Z,4.84
2022-11-25T07:03:01.734Z,4.84
2022-11-25T07:04:01.723Z,4.86
2022-11-25T07:05:01.694Z,4.87
2022-11-25T07:06:08.798Z,4.86
2022-11-25T07:07:01.657Z,4.89
2022-11-25T07:08:01.653Z,4.89
2022-11-25T07:09:01.649Z,4.89
2022-11-25T07:10:01.619Z,4.90
2022-11-25T07:11:01.626Z,4.92
2022-11-25T07:12:01.599Z,4.90
2022-11-25T07:13:01.578Z,4.92
2022-11-25T07:14:01.589Z,4.94
2022-11-25T07:15:01.548Z,4.92
2022-11-25T07:16:01.591Z,4.94
2022-11-25T07:17:01.527Z,4.94
2022-11-25T07:18:01.517Z,4.97
2022-11-25T07:19:01.516Z,4.95
2022-11-25T07:20:01.486Z,4.92
2022-11-25T07:21:01.476Z,4.92
2022-11-25T07:22:01.466Z,4.95
2022-11-25T07:23:01.446Z,4.94
2022-11-25T07:24:01.464Z,4.95
2022-11-25T07:25:01.415Z,4.97
2022-11-25T07:26:01.403Z,4.98
2022-11-25T07:27:01.399Z,4.95
2022-11-25T07:28:01.386Z,4.97
2022-11-25T07:29:01.376Z,4.95
2022-11-25T07:30:54.576Z,4.98
2022-11-25T07:32:07.120Z,4.98
2022-11-25T07:33:02.354Z,5.00
2022-11-25T07:34:01.317Z,5.00
2022-11-25T07:35:01.284Z,5.01
2022-11-25T07:36:01.276Z,5.01
2022-11-25T07:37:01.267Z,5.04
2022-11-25T07:38:01.297Z,5.02
2022-11-25T07:39:01.249Z,5.02
2022-11-25T07:40:01.227Z,5.04
2022-11-25T07:41:01.267Z,5.02
2022-11-25T07:42:01.197Z,5.04
2022-11-25T07:43:01.176Z,5.04
2022-11-25T07:44:01.187Z,5.04
2022-11-25T07:45:01.158Z,5.02
2022-11-25T07:46:01.167Z,5.04
2022-11-25T07:47:01.142Z,5.04
2022-11-25T07:48:01.116Z,5.07
2022-11-25T07:49:01.113Z,5.05
2022-11-25T07:50:01.096Z,5.07
2022-11-25T07:51:01.075Z,5.07
2022-11-25T07:52:01.065Z,5.10
2022-11-25T07:53:01.046Z,5.12
2022-11-25T07:54:01.056Z,5.12
2022-11-25T07:55:01.025Z,5.15
2022-11-25T07:56:01.006Z,5.16
2022-11-25T07:57:01.287Z,5.18
2022-11-25T07:58:00.986Z,5.19
2022-11-25T07:59:00.996Z,5.20
2022-11-25T08:00:00.967Z,5.22
2022-11-25T08:01:00.971Z,5.23
2022-11-25T08:02:01.092Z,5.23
2022-11-25T08:03:00.976Z,5.25
2022-11-25T08:04:00.907Z,5.26
2022-11-25T08:05:00.914Z,5.26
2022-11-25T08:06:00.877Z,5.26
2022-11-25T08:07:00.867Z,5.25
2022-11-25T08:08:00.952Z,5.29
2022-11-25T08:09:00.976Z,5.29
2022-11-25T08:10:00.862Z,5.28
2022-11-25T08:11:00.824Z,5.31
2022-11-25T08:12:00.823Z,5.33
2022-11-25T08:13:00.793Z,5.34
2022-11-25T08:14:00.780Z,5.36
2022-11-25T08:15:00.776Z,5.37
2022-11-25T08:16:00.855Z,5.40
2022-11-25T08:17:00.736Z,5.41
2022-11-25T08:18:00.725Z,5.41
2022-11-25T08:19:00.707Z,5.41
2022-11-25T08:20:00.733Z,5.43
2022-11-25T08:21:00.687Z,5.44
2022-11-25T08:22:00.666Z,5.46
2022-11-25T08:23:00.657Z,5.47
2022-11-25T08:24:00.647Z,5.47
2022-11-25T08:25:00.646Z,5.52
2022-11-25T08:26:00.635Z,5.54
2022-11-25T08:27:00.606Z,5.56
2022-11-25T08:28:00.607Z,5.56
2022-11-25T08:29:00.580Z,5.59
2022-11-25T08:30:00.585Z,5.59
2022-11-25T08:31:00.592Z,5.59
2022-11-25T08:32:00.566Z,5.62
2022-11-25T08:33:00.581Z,5.64
2022-11-25T08:34:00.617Z,5.65
2022-11-25T08:35:00.661Z,5.67
2022-11-25T08:36:00.494Z,5.69
2022-11-25T08:37:00.583Z,5.70
2022-11-25T08:38:00.456Z,5.73
2022-11-25T08:39:00.465Z,5.73
2022-11-25T08:40:01.133Z,5.76
2022-11-25T08:41:00.425Z,5.73
2022-11-25T08:42:00.477Z,5.76
2022-11-25T08:43:00.402Z,5.76
2022-11-25T08:44:00.413Z,5.79
2022-11-25T08:45:00.527Z,5.79
2022-11-25T08:46:00.409Z,5.80
2022-11-25T08:47:00.396Z,5.80
2022-11-25T08:48:00.330Z,5.81
2022-11-25T08:49:00.317Z,5.83
2022-11-25T08:50:00.336Z,5.83
2022-11-25T08:51:00.286Z,5.88
2022-11-25T08:52:00.374Z,5.87
2022-11-25T08:53:00.365Z,5.87
2022-11-25T08:54:00.264Z,5.87
2022-11-25T08:55:00.281Z,5.88
2022-11-25T08:56:00.345Z,5.90
2022-11-25T08:57:00.205Z,5.91
2022-11-25T08:58:00.189Z,5.92
2022-11-25T08:59:00.190Z,5.92
2022-11-25T09:00:00.196Z,5.95
2022-11-25T09:01:00.163Z,5.95
2022-11-25T09:02:00.377Z,5.97
2022-11-25T09:03:01.137Z,6.01
2022-11-25T09:04:00.126Z,6.01
2022-11-25T09:05:00.118Z,5.99
2022-11-25T09:06:00.324Z,6.01
2022-11-25T09:07:00.096Z,6.01
2022-11-25T09:08:00.130Z,6.02
2022-11-25T09:09:00.057Z,6.02
2022-11-25T09:10:00.230Z,6.01
2022-11-25T09:11:00.066Z,5.99
2022-11-25T09:12:00.043Z,5.99
2022-11-25T09:13:00.005Z,5.98
2022-11-25T09:14:00.077Z,5.98
2022-11-25T09:15:00.004Z,5.99
2022-11-25T09:16:00.060Z,6.01
2022-11-25T09:17:00.065Z,6.02
2022-11-25T09:18:00.143Z,6.05
2022-11-25T09:18:59.915Z,6.06
2022-11-25T09:19:59.924Z,6.06
2022-11-25T09:21:00.039Z,6.07
2022-11-25T09:21:59.893Z,6.09
2022-11-25T09:22:59.864Z,6.10
2022-11-25T09:23:59.883Z,6.13
2022-11-25T09:24:59.925Z,6.17
2022-11-25T09:25:59.843Z,6.20
2022-11-25T09:26:59.814Z,6.25
2022-11-25T09:27:59.813Z,6.28
2022-11-25T09:28:59.784Z,6.29
2022-11-25T09:29:59.814Z,6.31
2022-11-25T09:30:59.940Z,6.32
2022-11-25T09:31:59.852Z,6.35
2022-11-25T09:32:59.916Z,6.35
2022-11-25T09:33:59.754Z,6.34
2022-11-25T09:34:59.715Z,6.34
2022-11-25T09:35:59.724Z,6.34
2022-11-25T09:36:59.674Z,6.35
2022-11-25T09:37:59.684Z,6.35
2022-11-25T09:38:59.648Z,6.34
2022-11-25T09:39:59.650Z,6.29
2022-11-25T09:40:59.621Z,6.28
2022-11-25T09:41:59.622Z,6.28
2022-11-25T09:42:59.592Z,6.28
2022-11-25T09:43:59.582Z,6.28
2022-11-25T09:44:59.605Z,6.28
2022-11-25T09:45:59.643Z,6.29
2022-11-25T09:46:59.856Z,6.29
2022-11-25T09:47:59.546Z,6.29
2022-11-25T09:48:59.633Z,6.32
2022-11-25T09:49:59.554Z,6.35
2022-11-25T09:50:59.587Z,6.36
2022-11-25T09:51:59.526Z,6.39
2022-11-25T09:52:59.474Z,6.41
2022-11-25T09:53:59.474Z,6.43
2022-11-25T09:54:59.844Z,6.44
2022-11-25T09:56:01.596Z,6.46
2022-11-25T09:56:59.435Z,6.50
2022-11-25T09:57:59.969Z,6.52
2022-11-25T09:58:59.405Z,6.54
2022-11-25T09:59:59.409Z,6.54
2022-11-25T10:00:59.412Z,6.57
2022-11-25T10:01:59.420Z,6.60
2022-11-25T10:02:59.504Z,6.64
2022-11-25T10:03:59.345Z,6.67
2022-11-25T10:04:59.334Z,6.70
2022-11-25T10:05:59.333Z,6.72
2022-11-25T10:06:59.360Z,6.75
2022-11-25T10:07:59.313Z,6.77
2022-11-25T10:08:59.284Z,6.83
2022-11-25T10:09:59.272Z,6.85
2022-11-25T10:10:59.288Z,6.87
2022-11-25T10:11:59.242Z,6.90
2022-11-25T10:12:59.235Z,6.95
2022-11-25T10:13:59.213Z,7.00
2022-11-25T10:14:59.202Z,7.04
2022-11-25T10:15:59.237Z,7.08
2022-11-25T10:16:59.164Z,7.11
2022-11-25T10:17:59.180Z,7.15
2022-11-25T10:18:59.167Z,7.25
2022-11-25T10:19:59.160Z,7.36
2022-11-25T10:20:59.142Z,7.44
2022-11-25T10:21:59.125Z,7.53
2022-11-25T10:22:59.107Z,7.62
2022-11-25T10:23:59.098Z,7.70
2022-11-25T10:24:59.066Z,7.78
2022-11-25T10:25:59.082Z,7.81
2022-11-25T10:26:59.046Z,7.80
2022-11-25T10:27:59.035Z,7.77
2022-11-25T10:28:59.023Z,7.77
2022-11-25T10:29:59.015Z,7.77
2022-11-25T10:30:59.075Z,7.77
2022-11-25T10:31:58.993Z,7.74
2022-11-25T10:33:02.346Z,7.80
2022-11-25T10:33:58.968Z,7.87
2022-11-25T10:34:59.225Z,7.96
2022-11-25T10:35:58.947Z,8.06
2022-11-25T10:36:58.921Z,8.14
2022-11-25T10:37:58.914Z,8.14
2022-11-25T10:38:58.905Z,8.14
2022-11-25T10:39:58.883Z,8.14
2022-11-25T10:40:58.895Z,8.13
2022-11-25T10:41:58.847Z,8.14
2022-11-25T10:42:58.844Z,8.11
2022-11-25T10:43:58.832Z,8.13
2022-11-25T10:44:58.804Z,8.18
2022-11-25T10:45:58.824Z,8.23
2022-11-25T10:47:13.395Z,8.27
2022-11-25T10:47:59.782Z,8.28
2022-11-25T10:48:58.775Z,8.32
2022-11-25T10:49:58.754Z,8.36
2022-11-25T10:50:58.763Z,8.41
2022-11-25T10:51:58.713Z,8.45
2022-11-25T10:52:58.694Z,8.50
2022-11-25T10:53:58.702Z,8.54
2022-11-25T10:54:58.692Z,8.57
2022-11-25T10:55:58.676Z,8.59
2022-11-25T10:56:58.676Z,8.61
2022-11-25T10:57:58.655Z,8.93
2022-11-25T10:58:58.634Z,9.11
2022-11-25T10:59:58.638Z,9.15
2022-11-25T11:00:58.624Z,9.12
2022-11-25T11:01:58.707Z,9.09
2022-11-25T11:02:58.739Z,9.09
2022-11-25T11:03:58.563Z,9.12
2022-11-25T11:04:58.569Z,9.13
2022-11-25T11:05:58.524Z,9.15
2022-11-25T11:06:58.552Z,9.15
2022-11-25T11:07:58.550Z,9.13
2022-11-25T11:08:58.502Z,9.09
2022-11-25T11:09:58.488Z,9.05
2022-11-25T11:10:58.483Z,9.05
2022-11-25T11:11:58.504Z,9.05
2022-11-25T11:12:58.452Z,9.11
2022-11-25T11:13:58.439Z,9.08
2022-11-25T11:14:58.423Z,9.02
2022-11-25T11:15:58.445Z,8.99
2022-11-25T11:16:58.423Z,8.97
2022-11-25T11:17:58.383Z,8.95
2022-11-25T11:18:58.376Z,8.96
2022-11-25T11:19:58.353Z,8.93
2022-11-25T11:20:58.346Z,8.95
2022-11-25T11:21:58.341Z,8.93
2022-11-25T11:22:58.325Z,8.90
2022-11-25T11:23:58.275Z,8.90
2022-11-25T11:24:58.282Z,8.90
2022-11-25T11:25:58.276Z,8.89
2022-11-25T11:26:58.282Z,8.90
2022-11-25T11:27:58.237Z,8.93
2022-11-25T11:28:58.235Z,8.96
2022-11-25T11:29:58.213Z,8.95
2022-11-25T11:30:58.318Z,8.96
2022-11-25T11:31:58.212Z,8.95
2022-11-25T11:32:58.183Z,8.96
2022-11-25T11:33:58.152Z,8.96
2022-11-25T11:34:58.153Z,8.95
2022-11-25T11:35:58.123Z,8.95
2022-11-25T11:36:58.168Z,8.95
2022-11-25T11:37:58.104Z,9.05
2022-11-25T11:38:58.105Z,9.31
2022-11-25T11:39:58.075Z,9.59
2022-11-25T11:40:58.074Z,9.76
2022-11-25T11:41:58.071Z,9.92
2022-11-25T11:42:58.043Z,10.03
2022-11-25T11:43:58.027Z,10.09
2022-11-25T11:44:58.026Z,10.25
2022-11-25T11:45:58.045Z,10.38
2022-11-25T11:46:58.060Z,10.55
2022-11-25T11:47:57.964Z,10.68
2022-11-25T11:48:57.963Z,10.79
2022-11-25T11:49:57.933Z,10.90
2022-11-25T11:50:58.004Z,10.92
2022-11-25T11:51:57.995Z,10.82
2022-11-25T11:52:57.937Z,10.75
2022-11-25T11:53:57.888Z,10.64
2022-11-25T11:54:57.882Z,10.61
2022-11-25T11:56:26.935Z,10.57
2022-11-25T11:57:00.264Z,10.59
2022-11-25T11:57:58.340Z,10.67
2022-11-25T11:58:57.835Z,10.71
2022-11-25T11:59:58.252Z,10.76
2022-11-25T12:00:57.804Z,10.80
2022-11-25T12:01:57.849Z,10.77
2022-11-25T12:02:57.780Z,10.77
2022-11-25T12:03:57.766Z,10.80
2022-11-25T12:04:57.758Z,10.86
2022-11-25T12:05:57.724Z,10.90
2022-11-25T12:06:57.743Z,10.95
2022-11-25T12:07:57.782Z,11.00
2022-11-25T12:08:57.713Z,11.05
2022-11-25T12:09:57.666Z,11.02
2022-11-25T12:10:57.674Z,10.94
2022-11-25T12:11:57.655Z,10.83
2022-11-25T12:12:57.884Z,10.68
2022-11-25T12:14:00.859Z,10.55
2022-11-25T12:14:58.027Z,10.41
2022-11-25T12:15:58.173Z,10.30
2022-11-25T12:16:57.651Z,10.18
2022-11-25T12:17:57.575Z,10.12
2022-11-25T12:18:57.563Z,10.03
2022-11-25T12:19:57.553Z,9.99
2022-11-25T12:20:57.565Z,9.91
2022-11-25T12:21:57.524Z,9.85
2022-11-25T12:22:57.527Z,9.76
2022-11-25T12:23:57.486Z,9.70
2022-11-25T12:24:57.483Z,9.66
2022-11-25T12:25:57.453Z,9.62
2022-11-25T12:26:57.445Z,9.58
2022-11-25T12:27:57.445Z,9.59
2022-11-25T12:28:57.434Z,9.56
2022-11-25T12:29:57.414Z,9.55
2022-11-25T12:31:01.869Z,9.56
2022-11-25T12:31:58.467Z,9.54
2022-11-25T12:32:57.394Z,9.51
2022-11-25T12:33:57.357Z,9.49
2022-11-25T12:34:57.357Z,9.48
2022-11-25T12:35:57.336Z,9.47
2022-11-25T12:36:57.329Z,9.45
2022-11-25T12:37:57.333Z,9.45
2022-11-25T12:38:57.295Z,9.45
2022-11-25T12:39:57.276Z,9.44
2022-11-25T12:40:57.255Z,9.42
2022-11-25T12:41:57.245Z,9.42
2022-11-25T12:42:57.281Z,9.45
2022-11-25T12:43:57.224Z,9.51
2022-11-25T12:44:57.215Z,9.49
2022-11-25T12:45:57.283Z,9.49
2022-11-25T12:46:57.194Z,9.48
2022-11-25T12:47:57.208Z,9.48
2022-11-25T12:48:57.166Z,9.48
2022-11-25T12:49:57.286Z,9.47
2022-11-25T12:50:57.138Z,9.45
2022-11-25T12:51:57.115Z,9.44
2022-11-25T12:52:57.145Z,9.42
2022-11-25T12:53:57.088Z,9.40
2022-11-25T12:54:57.084Z,9.37
2022-11-25T12:55:57.065Z,9.39
2022-11-25T12:56:57.055Z,9.37
2022-11-25T12:57:57.057Z,9.37
2022-11-25T12:58:57.146Z,9.37
2022-11-25T13:00:17.478Z,9.37
2022-11-25T13:00:58.047Z,9.40
2022-11-25T13:01:57.239Z,9.42
2022-11-25T13:02:57.040Z,9.44
2022-11-25T13:03:57.353Z,9.47
2022-11-25T13:05:07.643Z,9.49
2022-11-25T13:06:00.090Z,9.49
2022-11-25T13:06:56.906Z,9.51
2022-11-25T13:07:56.930Z,9.51
2022-11-25T13:08:56.914Z,9.52
2022-11-25T13:09:56.885Z,9.64
2022-11-25T13:10:57.291Z,9.73
2022-11-25T13:11:57.208Z,9.73
2022-11-25T13:12:57.086Z,9.87
2022-11-25T13:13:57.321Z,9.97
2022-11-25T13:14:57.276Z,10.07
2022-11-25T13:15:57.335Z,10.05
2022-11-25T13:16:57.411Z,10.02
2022-11-25T13:17:56.861Z,10.03
2022-11-25T13:18:56.769Z,10.06
2022-11-25T13:19:56.792Z,10.07
2022-11-25T13:20:56.725Z,10.09